sensor_id;sensor_type;location;lat;lon;timestamp;P1;durP1;ratioP1;P2;durP2;ratioP2
43311;SDS011;30041;48.300;16.352;2022-10-04T00:00:11;1.00;;;0.60;;
43311;SDS011;30041;48.300;16.352;2022-10-04T00:03:04;1.83;;;0.80;;
43311;SDS011;30041;48.300;16.352;2022-10-04T00:05:34;0.82;;;0.50;;
43311;SDS011;30041;48.300;16.352;2022-10-04T00:08:21;0.75;;;0.50;;
43311;SDS011;30041;48.300;16.352;2022-10-04T00:13:28;0.95;;;0.50;;
43311;SDS011;30041;48.300;16.352;2022-10-04T00:15:55;1.23;;;0.77;;
43311;SDS011;30041;48.300;16.352;2022-10-04T00:18:38;1.00;;;0.50;;
43311;SDS011;30041;48.300;16.352;2022-10-04T00:21:06;1.40;;;0.73;;
43311;SDS011;30041;48.300;16.352;2022-10-04T00:28:50;0.70;;;0.50;;
43311;SDS011;30041;48.300;16.352;2022-10-04T00:31:17;1.10;;;0.55;;
43311;SDS011;30041;48.300;16.352;2022-10-04T00:33:55;1.55;;;0.63;;
43311;SDS011;30041;48.300;16.352;2022-10-04T00:41:47;0.85;;;0.50;;
43311;SDS011;30041;48.300;16.352;2022-10-04T00:44:22;0.60;;;0.40;;
43311;SDS011;30041;48.300;16.352;2022-10-04T00:49:54;0.98;;;0.57;;
43311;SDS011;30041;48.300;16.352;2022-10-04T00:52:30;0.60;;;0.50;;
43311;SDS011;30041;48.300;16.352;2022-10-04T00:55:05;0.75;;;0.40;;
43311;SDS011;30041;48.300;16.352;2022-10-04T00:57:37;0.90;;;0.40;;
43311;SDS011;30041;48.300;16.352;2022-10-04T01:00:10;0.77;;;0.50;;
43311;SDS011;30041;48.300;16.352;2022-10-04T01:05:07;0.60;;;0.40;;
43311;SDS011;30041;48.300;16.352;2022-10-04T01:07:36;0.80;;;0.45;;
43311;SDS011;30041;48.300;16.352;2022-10-04T01:10:11;1.48;;;0.43;;
43311;SDS011;30041;48.300;16.352;2022-10-04T01:12:49;0.95;;;0.50;;
43311;SDS011;30041;48.300;16.352;2022-10-04T01:15:21;0.70;;;0.50;;
43311;SDS011;30041;48.300;16.352;2022-10-04T01:18:14;1.23;;;0.50;;
43311;SDS011;30041;48.300;16.352;2022-10-04T01:20:52;1.95;;;0.38;;
43311;SDS011;30041;48.300;16.352;2022-10-04T01:23:38;0.55;;;0.35;;
43311;SDS011;30041;48.300;16.352;2022-10-04T01:26:48;1.00;;;0.50;;
43311;SDS011;30041;48.300;16.352;2022-10-04T01:28:57;0.68;;;0.45;;
43311;SDS011;30041;48.300;16.352;2022-10-04T01:31:25;0.68;;;0.43;;
43311;SDS011;30041;48.300;16.352;2022-10-04T01:33:53;0.50;;;0.35;;
43311;SDS011;30041;48.300;16.352;2022-10-04T01:36:19;0.30;;;0.30;;
43311;SDS011;30041;48.300;16.352;2022-10-04T01:38:46;0.57;;;0.50;;
43311;SDS011;30041;48.300;16.352;2022-10-04T01:41:13;0.93;;;0.50;;
43311;SDS011;30041;48.300;16.352;2022-10-04T01:43:45;0.60;;;0.40;;
43311;SDS011;30041;48.300;16.352;2022-10-04T01:46:28;0.95;;;0.50;;
43311;SDS011;30041;48.300;16.352;2022-10-04T01:48:58;0.50;;;0.40;;
43311;SDS011;30041;48.300;16.352;2022-10-04T01:51:36;1.17;;;0.60;;
43311;SDS011;30041;48.300;16.352;2022-10-04T01:54:17;0.63;;;0.40;;
43311;SDS011;30041;48.300;16.352;2022-10-04T01:56:55;0.63;;;0.20;;
43311;SDS011;30041;48.300;16.352;2022-10-04T01:59:53;0.57;;;0.40;;
43311;SDS011;30041;48.300;16.352;2022-10-04T02:04:57;0.60;;;0.30;;
43311;SDS011;30041;48.300;16.352;2022-10-04T02:07:24;0.90;;;0.40;;
43311;SDS011;30041;48.300;16.352;2022-10-04T02:09:55;0.30;;;0.30;;
43311;SDS011;30041;48.300;16.352;2022-10-04T02:12:24;0.52;;;0.40;;
43311;SDS011;30041;48.300;16.352;2022-10-04T02:14:52;0.65;;;0.38;;
43311;SDS011;30041;48.300;16.352;2022-10-04T02:17:22;0.60;;;0.30;;
43311;SDS011;30041;48.300;16.352;2022-10-04T02:19:50;0.77;;;0.43;;
43311;SDS011;30041;48.300;16.352;2022-10-04T02:22:16;0.45;;;0.40;;
43311;SDS011;30041;48.300;16.352;2022-10-04T02:24:44;0.40;;;0.30;;
43311;SDS011;30041;48.300;16.352;2022-10-04T02:27:12;0.25;;;0.20;;
43311;SDS011;30041;48.300;16.352;2022-10-04T02:29:38;0.32;;;0.20;;
43311;SDS011;30041;48.300;16.352;2022-10-04T02:32:05;0.50;;;0.30;;
43311;SDS011;30041;48.300;16.352;2022-10-04T02:34:32;0.60;;;0.38;;
43311;SDS011;30041;48.300;16.352;2022-10-04T02:36:59;0.20;;;0.20;;
43311;SDS011;30041;48.300;16.352;2022-10-04T02:39:28;0.50;;;0.30;;
43311;SDS011;30041;48.300;16.352;2022-10-04T02:41:59;0.75;;;0.30;;
43311;SDS011;30041;48.300;16.352;2022-10-04T02:47:35;0.40;;;0.38;;
43311;SDS011;30041;48.300;16.352;2022-10-04T02:50:25;0.30;;;0.28;;
43311;SDS011;30041;48.300;16.352;2022-10-04T02:56:04;0.30;;;0.30;;
43311;SDS011;30041;48.300;16.352;2022-10-04T02:58:30;0.35;;;0.35;;
43311;SDS011;30041;48.300;16.352;2022-10-04T03:00:57;0.90;;;0.32;;
43311;SDS011;30041;48.300;16.352;2022-10-04T03:03:25;0.30;;;0.28;;
43311;SDS011;30041;48.300;16.352;2022-10-04T03:06:12;0.45;;;0.30;;
43311;SDS011;30041;48.300;16.352;2022-10-04T03:08:51;0.30;;;0.22;;
43311;SDS011;30041;48.300;16.352;2022-10-04T03:11:20;0.30;;;0.30;;
43311;SDS011;30041;48.300;16.352;2022-10-04T03:13:49;0.35;;;0.22;;
43311;SDS011;30041;48.300;16.352;2022-10-04T03:16:18;0.30;;;0.25;;
43311;SDS011;30041;48.300;16.352;2022-10-04T03:18:44;0.52;;;0.30;;
43311;SDS011;30041;48.300;16.352;2022-10-04T03:21:12;0.30;;;0.25;;
43311;SDS011;30041;48.300;16.352;2022-10-04T03:23:40;0.32;;;0.20;;
43311;SDS011;30041;48.300;16.352;2022-10-04T03:26:19;0.38;;;0.30;;
43311;SDS011;30041;48.300;16.352;2022-10-04T03:28:45;0.38;;;0.30;;
43311;SDS011;30041;48.300;16.352;2022-10-04T03:31:12;0.50;;;0.25;;
43311;SDS011;30041;48.300;16.352;2022-10-04T03:33:38;0.65;;;0.30;;
43311;SDS011;30041;48.300;16.352;2022-10-04T03:36:05;0.40;;;0.28;;
43311;SDS011;30041;48.300;16.352;2022-10-04T03:38:31;0.63;;;0.40;;
43311;SDS011;30041;48.300;16.352;2022-10-04T03:40:59;0.85;;;0.45;;
43311;SDS011;30041;48.300;16.352;2022-10-04T03:43:30;0.47;;;0.20;;
43311;SDS011;30041;48.300;16.352;2022-10-04T03:45:58;0.30;;;0.20;;
43311;SDS011;30041;48.300;16.352;2022-10-04T03:48:44;0.30;;;0.20;;
43311;SDS011;30041;48.300;16.352;2022-10-04T03:53:41;0.20;;;0.20;;
43311;SDS011;30041;48.300;16.352;2022-10-04T03:56:16;0.30;;;0.20;;
43311;SDS011;30041;48.300;16.352;2022-10-04T03:58:45;0.22;;;0.10;;
43311;SDS011;30041;48.300;16.352;2022-10-04T04:04:03;0.13;;;0.13;;
43311;SDS011;30041;48.300;16.352;2022-10-04T04:07:09;0.25;;;0.22;;
43311;SDS011;30041;48.300;16.352;2022-10-04T04:09:46;0.40;;;0.28;;
43311;SDS011;30041;48.300;16.352;2022-10-04T04:15:37;0.30;;;0.25;;
43311;SDS011;30041;48.300;16.352;2022-10-04T04:18:04;0.40;;;0.20;;
43311;SDS011;30041;48.300;16.352;2022-10-04T04:20:35;0.30;;;0.20;;
43311;SDS011;30041;48.300;16.352;2022-10-04T04:25:43;4.20;;;1.05;;
43311;SDS011;30041;48.300;16.352;2022-10-04T04:28:25;5.10;;;1.20;;
43311;SDS011;30041;48.300;16.352;2022-10-04T04:30:57;8.43;;;1.30;;
43311;SDS011;30041;48.300;16.352;2022-10-04T04:33:29;6.28;;;1.20;;
43311;SDS011;30041;48.300;16.352;2022-10-04T04:36:06;14.00;;;1.55;;
43311;SDS011;30041;48.300;16.352;2022-10-04T04:38:36;7.60;;;1.70;;
43311;SDS011;30041;48.300;16.352;2022-10-04T04:41:08;6.50;;;1.23;;
43311;SDS011;30041;48.300;16.352;2022-10-04T04:43:34;9.27;;;1.52;;
43311;SDS011;30041;48.300;16.352;2022-10-04T04:46:00;8.18;;;1.40;;
43311;SDS011;30041;48.300;16.352;2022-10-04T04:48:27;6.90;;;1.10;;
43311;SDS011;30041;48.300;16.352;2022-10-04T04:50:53;5.15;;;1.50;;
43311;SDS011;30041;48.300;16.352;2022-10-04T04:53:22;6.03;;;1.13;;
43311;SDS011;30041;48.300;16.352;2022-10-04T04:55:54;9.38;;;1.52;;
43311;SDS011;30041;48.300;16.352;2022-10-04T04:58:23;5.28;;;1.30;;
43311;SDS011;30041;48.300;16.352;2022-10-04T05:00:55;3.85;;;1.25;;
43311;SDS011;30041;48.300;16.352;2022-10-04T05:03:24;3.80;;;1.15;;
43311;SDS011;30041;48.300;16.352;2022-10-04T05:05:53;10.27;;;1.77;;
43311;SDS011;30041;48.300;16.352;2022-10-04T05:08:23;8.98;;;1.92;;
43311;SDS011;30041;48.300;16.352;2022-10-04T05:13:32;6.30;;;1.42;;
43311;SDS011;30041;48.300;16.352;2022-10-04T05:16:04;5.78;;;1.10;;
43311;SDS011;30041;48.300;16.352;2022-10-04T05:18:45;5.38;;;1.27;;
43311;SDS011;30041;48.300;16.352;2022-10-04T05:21:22;4.10;;;1.33;;
43311;SDS011;30041;48.300;16.352;2022-10-04T05:23:52;4.30;;;1.50;;
43311;SDS011;30041;48.300;16.352;2022-10-04T05:26:23;3.55;;;1.20;;
43311;SDS011;30041;48.300;16.352;2022-10-04T05:28:51;8.02;;;1.50;;
43311;SDS011;30041;48.300;16.352;2022-10-04T05:31:25;5.88;;;1.77;;
43311;SDS011;30041;48.300;16.352;2022-10-04T05:34:23;9.48;;;1.90;;
43311;SDS011;30041;48.300;16.352;2022-10-04T05:37:04;7.95;;;1.58;;
43311;SDS011;30041;48.300;16.352;2022-10-04T05:39:43;7.35;;;1.45;;
43311;SDS011;30041;48.300;16.352;2022-10-04T05:42:19;5.18;;;1.67;;
43311;SDS011;30041;48.300;16.352;2022-10-04T05:44:55;5.63;;;1.77;;
43311;SDS011;30041;48.300;16.352;2022-10-04T05:47:25;7.03;;;1.55;;
43311;SDS011;30041;48.300;16.352;2022-10-04T05:49:55;7.70;;;1.88;;
43311;SDS011;30041;48.300;16.352;2022-10-04T05:52:32;5.35;;;1.40;;
43311;SDS011;30041;48.300;16.352;2022-10-04T05:55:16;6.57;;;1.75;;
43311;SDS011;30041;48.300;16.352;2022-10-04T06:00:18;8.43;;;2.00;;
43311;SDS011;30041;48.300;16.352;2022-10-04T06:02:51;6.82;;;2.03;;
43311;SDS011;30041;48.300;16.352;2022-10-04T06:05:37;10.68;;;2.10;;
43311;SDS011;30041;48.300;16.352;2022-10-04T06:08:13;8.13;;;1.95;;
43311;SDS011;30041;48.300;16.352;2022-10-04T06:10:54;12.73;;;2.08;;
43311;SDS011;30041;48.300;16.352;2022-10-04T06:21:39;10.15;;;1.77;;
43311;SDS011;30041;48.300;16.352;2022-10-04T06:24:17;7.88;;;1.95;;
43311;SDS011;30041;48.300;16.352;2022-10-04T06:26:52;7.45;;;1.40;;
43311;SDS011;30041;48.300;16.352;2022-10-04T06:29:26;7.00;;;1.63;;
43311;SDS011;30041;48.300;16.352;2022-10-04T06:34:35;3.05;;;1.60;;
43311;SDS011;30041;48.300;16.352;2022-10-04T06:37:16;8.85;;;1.92;;
43311;SDS011;30041;48.300;16.352;2022-10-04T06:39:50;7.53;;;1.63;;
43311;SDS011;30041;48.300;16.352;2022-10-04T06:42:47;6.93;;;1.70;;
43311;SDS011;30041;48.300;16.352;2022-10-04T06:51:17;4.88;;;1.42;;
43311;SDS011;30041;48.300;16.352;2022-10-04T06:53:59;6.25;;;1.52;;
43311;SDS011;30041;48.300;16.352;2022-10-04T06:59:25;3.70;;;1.27;;
43311;SDS011;30041;48.300;16.352;2022-10-04T07:02:09;5.65;;;1.67;;
43311;SDS011;30041;48.300;16.352;2022-10-04T07:04:43;3.30;;;1.50;;
43311;SDS011;30041;48.300;16.352;2022-10-04T07:09:46;12.25;;;1.73;;
43311;SDS011;30041;48.300;16.352;2022-10-04T07:12:13;5.75;;;1.70;;
43311;SDS011;30041;48.300;16.352;2022-10-04T07:14:47;6.18;;;1.85;;
43311;SDS011;30041;48.300;16.352;2022-10-04T07:17:18;5.35;;;2.13;;
43311;SDS011;30041;48.300;16.352;2022-10-04T07:19:51;7.25;;;2.00;;
43311;SDS011;30041;48.300;16.352;2022-10-04T07:22:31;9.70;;;2.40;;
43311;SDS011;30041;48.300;16.352;2022-10-04T07:27:51;8.15;;;2.55;;
43311;SDS011;30041;48.300;16.352;2022-10-04T07:30:20;10.20;;;2.65;;
43311;SDS011;30041;48.300;16.352;2022-10-04T07:32:46;8.88;;;2.63;;
43311;SDS011;30041;48.300;16.352;2022-10-04T07:40:38;6.28;;;2.53;;
43311;SDS011;30041;48.300;16.352;2022-10-04T07:43:11;6.90;;;2.30;;
43311;SDS011;30041;48.300;16.352;2022-10-04T07:45:46;5.78;;;2.60;;
43311;SDS011;30041;48.300;16.352;2022-10-04T07:48:16;4.97;;;2.33;;
43311;SDS011;30041;48.300;16.352;2022-10-04T07:56:06;3.53;;;2.10;;
43311;SDS011;30041;48.300;16.352;2022-10-04T08:01:46;3.67;;;2.00;;
43311;SDS011;30041;48.300;16.352;2022-10-04T08:04:39;5.47;;;2.00;;
43311;SDS011;30041;48.300;16.352;2022-10-04T08:17:56;3.67;;;1.77;;
43311;SDS011;30041;48.300;16.352;2022-10-04T08:40:54;4.60;;;1.85;;
43311;SDS011;30041;48.300;16.352;2022-10-04T08:57:33;3.67;;;1.58;;
43311;SDS011;30041;48.300;16.352;2022-10-04T09:06:19;3.40;;;1.65;;
43311;SDS011;30041;48.300;16.352;2022-10-04T09:12:20;3.53;;;1.67;;
43311;SDS011;30041;48.300;16.352;2022-10-04T09:17:40;3.45;;;1.48;;
43311;SDS011;30041;48.300;16.352;2022-10-04T09:23:05;3.90;;;1.90;;
43311;SDS011;30041;48.300;16.352;2022-10-04T09:25:57;3.70;;;1.75;;
43311;SDS011;30041;48.300;16.352;2022-10-04T09:29:00;4.45;;;1.80;;
43311;SDS011;30041;48.300;16.352;2022-10-04T09:32:07;4.18;;;1.60;;
43311;SDS011;30041;48.300;16.352;2022-10-04T09:35:01;4.03;;;1.50;;
43311;SDS011;30041;48.300;16.352;2022-10-04T09:40:31;3.70;;;1.67;;
43311;SDS011;30041;48.300;16.352;2022-10-04T10:02:44;1.73;;;1.10;;
43311;SDS011;30041;48.300;16.352;2022-10-04T10:10:45;3.85;;;1.38;;
43311;SDS011;30041;48.300;16.352;2022-10-04T10:16:27;2.67;;;1.20;;
43311;SDS011;30041;48.300;16.352;2022-10-04T10:21:57;2.42;;;1.10;;
43311;SDS011;30041;48.300;16.352;2022-10-04T10:30:45;4.00;;;1.50;;
43311;SDS011;30041;48.300;16.352;2022-10-04T10:36:29;6.47;;;1.60;;
43311;SDS011;30041;48.300;16.352;2022-10-04T10:56:33;7.93;;;3.63;;
43311;SDS011;30041;48.300;16.352;2022-10-04T10:59:04;9.90;;;3.58;;
43311;SDS011;30041;48.300;16.352;2022-10-04T11:07:23;8.02;;;3.25;;
43311;SDS011;30041;48.300;16.352;2022-10-04T11:10:12;4.60;;;2.80;;
43311;SDS011;30041;48.300;16.352;2022-10-04T11:18:57;5.43;;;2.85;;
43311;SDS011;30041;48.300;16.352;2022-10-04T11:24:45;6.78;;;2.90;;
43311;SDS011;30041;48.300;16.352;2022-10-04T11:27:44;4.50;;;2.85;;
43311;SDS011;30041;48.300;16.352;2022-10-04T11:30:22;5.93;;;3.20;;
43311;SDS011;30041;48.300;16.352;2022-10-04T11:47:26;6.50;;;2.75;;
43311;SDS011;30041;48.300;16.352;2022-10-04T11:50:24;7.60;;;2.50;;
43311;SDS011;30041;48.300;16.352;2022-10-04T12:01:57;3.13;;;2.20;;
43311;SDS011;30041;48.300;16.352;2022-10-04T12:05:03;4.38;;;2.58;;
43311;SDS011;30041;48.300;16.352;2022-10-04T12:10:23;3.63;;;2.00;;
43311;SDS011;30041;48.300;16.352;2022-10-04T12:24:36;3.63;;;2.03;;
43311;SDS011;30041;48.300;16.352;2022-10-04T12:30:35;3.08;;;2.17;;
43311;SDS011;30041;48.300;16.352;2022-10-04T12:33:31;3.78;;;2.40;;
43311;SDS011;30041;48.300;16.352;2022-10-04T12:36:07;4.95;;;2.10;;
43311;SDS011;30041;48.300;16.352;2022-10-04T12:41:34;3.38;;;1.85;;
43311;SDS011;30041;48.300;16.352;2022-10-04T12:44:21;2.90;;;1.60;;
43311;SDS011;30041;48.300;16.352;2022-10-04T12:47:38;2.95;;;1.65;;
43311;SDS011;30041;48.300;16.352;2022-10-04T12:52:32;4.68;;;1.70;;
43311;SDS011;30041;48.300;16.352;2022-10-04T12:58:01;3.15;;;1.80;;
43311;SDS011;30041;48.300;16.352;2022-10-04T13:00:32;3.47;;;1.70;;
43311;SDS011;30041;48.300;16.352;2022-10-04T13:06:22;5.72;;;1.90;;
43311;SDS011;30041;48.300;16.352;2022-10-04T13:09:18;4.97;;;1.70;;
43311;SDS011;30041;48.300;16.352;2022-10-04T13:14:45;3.80;;;1.80;;
43311;SDS011;30041;48.300;16.352;2022-10-04T13:17:42;3.88;;;1.80;;
43311;SDS011;30041;48.300;16.352;2022-10-04T13:23:12;6.03;;;1.60;;
43311;SDS011;30041;48.300;16.352;2022-10-04T13:26:03;3.13;;;1.60;;
43311;SDS011;30041;48.300;16.352;2022-10-04T13:31:34;4.15;;;1.67;;
43311;SDS011;30041;48.300;16.352;2022-10-04T13:37:12;2.25;;;1.40;;
43311;SDS011;30041;48.300;16.352;2022-10-04T13:45:41;3.03;;;1.45;;
43311;SDS011;30041;48.300;16.352;2022-10-04T14:01:53;2.78;;;1.40;;
43311;SDS011;30041;48.300;16.352;2022-10-04T14:09:59;4.65;;;1.40;;
43311;SDS011;30041;48.300;16.352;2022-10-04T14:18:15;2.38;;;1.40;;
43311;SDS011;30041;48.300;16.352;2022-10-04T14:21:03;2.85;;;1.38;;
43311;SDS011;30041;48.300;16.352;2022-10-04T14:23:48;4.93;;;1.40;;
43311;SDS011;30041;48.300;16.352;2022-10-04T14:29:12;2.70;;;1.30;;
43311;SDS011;30041;48.300;16.352;2022-10-04T14:46:15;3.75;;;1.52;;
43311;SDS011;30041;48.300;16.352;2022-10-04T14:51:42;4.85;;;1.30;;
43311;SDS011;30041;48.300;16.352;2022-10-04T14:57:00;4.93;;;1.42;;
43311;SDS011;30041;48.300;16.352;2022-10-04T15:07:55;2.05;;;1.20;;
43311;SDS011;30041;48.300;16.352;2022-10-04T15:18:49;3.05;;;1.20;;
43311;SDS011;30041;48.300;16.352;2022-10-04T15:21:29;3.40;;;1.40;;
43311;SDS011;30041;48.300;16.352;2022-10-04T15:24:12;3.25;;;1.10;;
43311;SDS011;30041;48.300;16.352;2022-10-04T15:29:44;4.78;;;1.23;;
43311;SDS011;30041;48.300;16.352;2022-10-04T15:34:59;3.97;;;1.10;;
43311;SDS011;30041;48.300;16.352;2022-10-04T15:38:02;2.75;;;1.10;;
43311;SDS011;30041;48.300;16.352;2022-10-04T15:41:00;5.03;;;1.13;;
43311;SDS011;30041;48.300;16.352;2022-10-04T15:49:18;6.35;;;1.40;;
43311;SDS011;30041;48.300;16.352;2022-10-04T15:52:00;5.90;;;1.45;;
43311;SDS011;30041;48.300;16.352;2022-10-04T16:00:13;6.43;;;1.52;;
43311;SDS011;30041;48.300;16.352;2022-10-04T16:05:48;5.72;;;1.30;;
43311;SDS011;30041;48.300;16.352;2022-10-04T16:08:49;5.78;;;1.10;;
43311;SDS011;30041;48.300;16.352;2022-10-04T16:11:54;4.35;;;1.20;;
43311;SDS011;30041;48.300;16.352;2022-10-04T16:14:48;3.45;;;1.08;;
43311;SDS011;30041;48.300;16.352;2022-10-04T16:17:31;6.85;;;1.40;;
43311;SDS011;30041;48.300;16.352;2022-10-04T16:25:47;4.53;;;1.00;;
43311;SDS011;30041;48.300;16.352;2022-10-04T16:42:08;4.85;;;1.02;;
43311;SDS011;30041;48.300;16.352;2022-10-04T16:44:47;2.10;;;1.10;;
43311;SDS011;30041;48.300;16.352;2022-10-04T16:47:28;2.58;;;0.80;;
43311;SDS011;30041;48.300;16.352;2022-10-04T16:49:59;3.63;;;1.15;;
43311;SDS011;30041;48.300;16.352;2022-10-04T16:55:53;3.53;;;1.13;;
43311;SDS011;30041;48.300;16.352;2022-10-04T17:03:47;3.80;;;1.10;;
43311;SDS011;30041;48.300;16.352;2022-10-04T17:06:32;4.18;;;1.35;;
43311;SDS011;30041;48.300;16.352;2022-10-04T17:14:54;10.10;;;1.52;;
43311;SDS011;30041;48.300;16.352;2022-10-04T17:17:41;5.03;;;1.48;;
43311;SDS011;30041;48.300;16.352;2022-10-04T17:22:48;6.75;;;1.20;;
43311;SDS011;30041;48.300;16.352;2022-10-04T17:28:32;7.07;;;1.35;;
43311;SDS011;30041;48.300;16.352;2022-10-04T17:31:16;4.75;;;1.20;;
43311;SDS011;30041;48.300;16.352;2022-10-04T17:36:37;3.58;;;1.30;;
43311;SDS011;30041;48.300;16.352;2022-10-04T17:39:24;6.47;;;1.20;;
43311;SDS011;30041;48.300;16.352;2022-10-04T17:42:09;11.90;;;1.83;;
43311;SDS011;30041;48.300;16.352;2022-10-04T17:47:38;5.05;;;1.20;;
43311;SDS011;30041;48.300;16.352;2022-10-04T17:50:27;3.42;;;1.33;;
43311;SDS011;30041;48.300;16.352;2022-10-04T17:53:16;2.90;;;1.02;;
43311;SDS011;30041;48.300;16.352;2022-10-04T17:55:47;8.13;;;1.45;;
43311;SDS011;30041;48.300;16.352;2022-10-04T17:58:25;4.47;;;1.27;;
43311;SDS011;30041;48.300;16.352;2022-10-04T18:01:03;11.98;;;1.70;;
43311;SDS011;30041;48.300;16.352;2022-10-04T18:03:37;10.18;;;1.55;;
43311;SDS011;30041;48.300;16.352;2022-10-04T18:06:12;8.13;;;1.63;;
43311;SDS011;30041;48.300;16.352;2022-10-04T18:11:33;6.63;;;1.55;;
43311;SDS011;30041;48.300;16.352;2022-10-04T18:17:00;4.72;;;1.30;;
43311;SDS011;30041;48.300;16.352;2022-10-04T18:19:37;4.65;;;1.58;;
43311;SDS011;30041;48.300;16.352;2022-10-04T18:22:15;3.10;;;1.23;;
43311;SDS011;30041;48.300;16.352;2022-10-04T18:24:47;9.65;;;1.60;;
43311;SDS011;30041;48.300;16.352;2022-10-04T18:27:27;3.85;;;1.52;;
43311;SDS011;30041;48.300;16.352;2022-10-04T18:30:10;7.20;;;1.40;;
43311;SDS011;30041;48.300;16.352;2022-10-04T18:32:44;6.07;;;1.52;;
43311;SDS011;30041;48.300;16.352;2022-10-04T18:35:18;6.85;;;1.40;;
43311;SDS011;30041;48.300;16.352;2022-10-04T18:37:48;9.60;;;1.23;;
43311;SDS011;30041;48.300;16.352;2022-10-04T18:40:25;5.13;;;1.13;;
43311;SDS011;30041;48.300;16.352;2022-10-04T18:42:57;5.05;;;1.63;;
43311;SDS011;30041;48.300;16.352;2022-10-04T18:45:29;5.43;;;1.40;;
43311;SDS011;30041;48.300;16.352;2022-10-04T18:48:01;5.28;;;1.35;;
43311;SDS011;30041;48.300;16.352;2022-10-04T18:50:39;2.72;;;1.10;;
43311;SDS011;30041;48.300;16.352;2022-10-04T19:04:12;7.53;;;1.20;;
43311;SDS011;30041;48.300;16.352;2022-10-04T19:06:43;5.22;;;1.33;;
43311;SDS011;30041;48.300;16.352;2022-10-04T19:12:23;4.03;;;1.20;;
43311;SDS011;30041;48.300;16.352;2022-10-04T19:20:47;4.20;;;1.40;;
43311;SDS011;30041;48.300;16.352;2022-10-04T19:23:27;4.13;;;1.20;;
43311;SDS011;30041;48.300;16.352;2022-10-04T19:26:39;4.38;;;1.00;;
43311;SDS011;30041;48.300;16.352;2022-10-04T19:29:09;2.45;;;1.02;;
43311;SDS011;30041;48.300;16.352;2022-10-04T19:32:16;3.08;;;0.93;;
43311;SDS011;30041;48.300;16.352;2022-10-04T19:38:05;3.03;;;1.00;;
43311;SDS011;30041;48.300;16.352;2022-10-04T19:48:48;4.95;;;0.90;;
43311;SDS011;30041;48.300;16.352;2022-10-04T19:51:19;3.60;;;1.00;;
43311;SDS011;30041;48.300;16.352;2022-10-04T19:54:33;2.28;;;1.10;;
43311;SDS011;30041;48.300;16.352;2022-10-04T19:56:56;3.50;;;1.00;;
43311;SDS011;30041;48.300;16.352;2022-10-04T19:59:32;2.83;;;0.80;;
43311;SDS011;30041;48.300;16.352;2022-10-04T20:02:06;2.78;;;1.00;;
43311;SDS011;30041;48.300;16.352;2022-10-04T20:04:33;1.58;;;0.80;;
43311;SDS011;30041;48.300;16.352;2022-10-04T20:06:59;2.15;;;0.90;;
43311;SDS011;30041;48.300;16.352;2022-10-04T20:09:31;2.22;;;0.80;;
43311;SDS011;30041;48.300;16.352;2022-10-04T20:11:56;1.45;;;0.73;;
43311;SDS011;30041;48.300;16.352;2022-10-04T20:19:18;2.60;;;0.73;;
43311;SDS011;30041;48.300;16.352;2022-10-04T20:21:45;2.13;;;0.85;;
43311;SDS011;30041;48.300;16.352;2022-10-04T20:24:14;1.80;;;0.80;;
43311;SDS011;30041;48.300;16.352;2022-10-04T20:26:42;3.38;;;0.82;;
43311;SDS011;30041;48.300;16.352;2022-10-04T20:29:08;2.63;;;0.77;;
43311;SDS011;30041;48.300;16.352;2022-10-04T20:31:55;1.80;;;0.70;;
43311;SDS011;30041;48.300;16.352;2022-10-04T20:34:29;2.20;;;0.80;;
43311;SDS011;30041;48.300;16.352;2022-10-04T20:36:55;1.73;;;0.80;;
43311;SDS011;30041;48.300;16.352;2022-10-04T20:44:55;1.15;;;0.73;;
43311;SDS011;30041;48.300;16.352;2022-10-04T20:49:58;2.17;;;0.80;;
43311;SDS011;30041;48.300;16.352;2022-10-04T20:52:26;1.50;;;0.73;;
43311;SDS011;30041;48.300;16.352;2022-10-04T20:54:53;2.03;;;0.52;;
43311;SDS011;30041;48.300;16.352;2022-10-04T20:57:19;1.58;;;0.60;;
43311;SDS011;30041;48.300;16.352;2022-10-04T20:59:45;1.50;;;0.65;;
43311;SDS011;30041;48.300;16.352;2022-10-04T21:02:14;1.02;;;0.50;;
43311;SDS011;30041;48.300;16.352;2022-10-04T21:04:40;1.55;;;0.63;;
43311;SDS011;30041;48.300;16.352;2022-10-04T21:07:07;2.13;;;0.82;;
43311;SDS011;30041;48.300;16.352;2022-10-04T21:09:35;0.90;;;0.50;;
43311;SDS011;30041;48.300;16.352;2022-10-04T21:12:02;0.95;;;0.60;;
43311;SDS011;30041;48.300;16.352;2022-10-04T21:14:29;1.63;;;0.80;;
43311;SDS011;30041;48.300;16.352;2022-10-04T21:16:59;1.02;;;0.57;;
43311;SDS011;30041;48.300;16.352;2022-10-04T21:21:57;0.88;;;0.50;;
43311;SDS011;30041;48.300;16.352;2022-10-04T21:24:58;1.30;;;0.70;;
43311;SDS011;30041;48.300;16.352;2022-10-04T21:27:26;1.00;;;0.50;;
43311;SDS011;30041;48.300;16.352;2022-10-04T21:29:54;1.77;;;0.52;;
43311;SDS011;30041;48.300;16.352;2022-10-04T21:32:20;0.77;;;0.47;;
43311;SDS011;30041;48.300;16.352;2022-10-04T21:34:46;1.10;;;0.52;;
43311;SDS011;30041;48.300;16.352;2022-10-04T21:37:11;1.45;;;0.70;;
43311;SDS011;30041;48.300;16.352;2022-10-04T21:39:37;0.52;;;0.43;;
43311;SDS011;30041;48.300;16.352;2022-10-04T21:42:03;2.55;;;0.60;;
43311;SDS011;30041;48.300;16.352;2022-10-04T21:44:28;1.50;;;0.60;;
43311;SDS011;30041;48.300;16.352;2022-10-04T21:46:54;1.05;;;0.50;;
43311;SDS011;30041;48.300;16.352;2022-10-04T21:49:19;1.20;;;0.68;;
43311;SDS011;30041;48.300;16.352;2022-10-04T21:51:45;1.67;;;0.50;;
43311;SDS011;30041;48.300;16.352;2022-10-04T21:54:11;0.82;;;0.50;;
43311;SDS011;30041;48.300;16.352;2022-10-04T21:56:36;1.00;;;0.50;;
43311;SDS011;30041;48.300;16.352;2022-10-04T21:59:02;1.20;;;0.57;;
43311;SDS011;30041;48.300;16.352;2022-10-04T22:01:27;0.85;;;0.60;;
43311;SDS011;30041;48.300;16.352;2022-10-04T22:03:53;0.73;;;0.40;;
43311;SDS011;30041;48.300;16.352;2022-10-04T22:06:18;0.88;;;0.40;;
43311;SDS011;30041;48.300;16.352;2022-10-04T22:08:44;0.50;;;0.40;;
43311;SDS011;30041;48.300;16.352;2022-10-04T22:11:09;0.95;;;0.40;;
43311;SDS011;30041;48.300;16.352;2022-10-04T22:13:35;0.70;;;0.30;;
43311;SDS011;30041;48.300;16.352;2022-10-04T22:16:01;1.42;;;0.55;;
43311;SDS011;30041;48.300;16.352;2022-10-04T22:18:27;1.55;;;0.40;;
43311;SDS011;30041;48.300;16.352;2022-10-04T22:20:53;0.47;;;0.30;;
43311;SDS011;30041;48.300;16.352;2022-10-04T22:23:23;0.52;;;0.40;;
43311;SDS011;30041;48.300;16.352;2022-10-04T22:25:49;1.08;;;0.50;;
43311;SDS011;30041;48.300;16.352;2022-10-04T22:30:47;0.68;;;0.30;;
43311;SDS011;30041;48.300;16.352;2022-10-04T22:33:32;0.60;;;0.38;;
43311;SDS011;30041;48.300;16.352;2022-10-04T22:41:33;0.70;;;0.30;;
43311;SDS011;30041;48.300;16.352;2022-10-04T22:44:18;0.60;;;0.30;;
43311;SDS011;30041;48.300;16.352;2022-10-04T22:46:51;0.70;;;0.40;;
43311;SDS011;30041;48.300;16.352;2022-10-04T22:49:22;1.02;;;0.40;;
43311;SDS011;30041;48.300;16.352;2022-10-04T22:51:50;0.68;;;0.40;;
43311;SDS011;30041;48.300;16.352;2022-10-04T22:54:18;0.75;;;0.40;;
43311;SDS011;30041;48.300;16.352;2022-10-04T22:56:45;1.05;;;0.30;;
43311;SDS011;30041;48.300;16.352;2022-10-04T22:59:12;0.43;;;0.30;;
43311;SDS011;30041;48.300;16.352;2022-10-04T23:01:40;1.00;;;0.40;;
43311;SDS011;30041;48.300;16.352;2022-10-04T23:04:11;0.90;;;0.40;;
43311;SDS011;30041;48.300;16.352;2022-10-04T23:06:42;1.17;;;0.30;;
43311;SDS011;30041;48.300;16.352;2022-10-04T23:09:07;0.90;;;0.40;;
43311;SDS011;30041;48.300;16.352;2022-10-04T23:11:32;0.35;;;0.20;;
43311;SDS011;30041;48.300;16.352;2022-10-04T23:13:58;1.23;;;0.40;;
43311;SDS011;30041;48.300;16.352;2022-10-04T23:16:23;0.30;;;0.30;;